Airfield :
LOGIN :

Register | Disclaimer

   EN    FR    IT 

 










Legend :    VFR   Marginal VFR   IFR   Intensive IFR   Very Intensive IFR
Visi :
Ceiling :
>= 8 km
>= 3000ft
5 to 8 km
1000 to 3000 ft
1500m to 5 km
500 to 1000 ft
800 to 1500m
200 to 500 ft
< 800m
< 200 ft
Symbols :   Thunderstorms  Fog  Heavy snow  Heavy precipitations  Wind > 20 kt
SIGMETs :     Misc.  Thunderstorms  Icing  Turbulence  Mountain Waves  Volcanic Ashes







- Airport Elevation : 404 ft
- IATA code : WRO


EPWR - Wroclaw

CURRENT METAR :
  • 212300Z 31009KT 9999 FEW012 SCT045 11/09 Q1018

EXPIRED METARs :
  • 212230Z 31009KT 9999 FEW012 SCT033 BKN044 11/10 Q1018
  • 212200Z 31009KT 9999 FEW013 BKN033 10/09 Q1018
  • 212130Z 31008KT 9999 BKN014 12/10 Q1018
  • 212100Z 32009KT 9999 BKN015 13/10 Q1018
  • 212030Z 32009KT 9999 SCT018 12/10 Q1018

TAF TAF EPWR
Valid from the 21 at 18:00 until the 22 at 18:00 UTC


211730Z 2118/2218 33010KT 9999 BKN040
TEMPO 2121/2208 BKN014
PROB40
TEMPO 2121/2206 2000 BR BKN004
No reported NOTAMs for that airfield.



MET'MAP, your aeronautical weather chart ! - Copyright ORBIFLY December 2007 - Disclaimer

ORBIFLY MET'MAP TEAM :

Programming & Development : Alexandra Zaïnal
Concept & Development : Baudouin d'Aumeries
Co-Development & Prog : Marc-Olivier Méhu
Technical & hardware support : Manuel Goepfert

Contact : metmap@orbifly.com




SOURCES & CREDITS :

   NOAA